CA-0517 weather

Hastings Field
North Pender Island, British Columbia, Canada

Public forecast

Using degrees Celsius for public forecast. Weather courtesy of forecast.io.

Closest aviation weather report (METAR) to Hastings Field

Closest report is Victoria International Airport, 9.9 nm (18.3 km) SW. Retrieved 2019/11/15 03:00 UTC (60 minutes ago):

CYYJ 150300Z 10002KT 20SM SCT110 BKN160 BKN250 08/08 A2994 RMK AC4AC2CI1 SLP139

Closest aviation forecast (TAF) to Hastings Field

Closest forecast is Victoria International Airport, 9.9 nm (18.3 km) SW. Retrieved 2019-11-15 00:42 UTC (3 hours ago):

TAF CYYJ 142338Z 1500/1524 25005KT P6SM FEW025 BKN120 FM150600 25005KT P6SM SCT020 BKN070 TEMPO 1506/1509 P6SM -RA BKN025 FM150900 25005KT P6SM -RA SCT008 BKN025 TEMPO 1510/1516 5SM -RA BR BKN008 FM151600 16008KT P6SM SCT012 BKN025 TEMPO 1516/1524 5SM -SHRA BR BKN012 RMK NXT FCST BY 150600Z